createdAt,value
2022-11-05T00:02:30.057Z,3.90
2022-11-05T00:05:22.189Z,4.50
2022-11-05T00:08:15.571Z,4.93
2022-11-05T00:10:47.326Z,4.53
2022-11-05T00:13:40.683Z,5.50
2022-11-05T00:16:30.565Z,4.28
2022-11-05T00:19:09.007Z,4.70
2022-11-05T00:21:59.229Z,6.00
2022-11-05T00:24:49.151Z,6.03
2022-11-05T00:27:20.743Z,5.25
2022-11-05T00:29:52.385Z,5.18
2022-11-05T00:32:24.020Z,5.47
2022-11-05T00:34:55.667Z,5.25
2022-11-05T00:37:28.271Z,5.25
2022-11-05T00:39:59.853Z,5.22
2022-11-05T00:42:51.291Z,5.57
2022-11-05T00:45:22.931Z,5.63
2022-11-05T00:48:13.197Z,5.28
2022-11-05T00:50:44.761Z,5.38
2022-11-05T00:53:16.450Z,5.70
2022-11-05T00:55:51.012Z,5.97
2022-11-05T00:58:23.433Z,5.18
2022-11-05T01:00:57.519Z,5.60
2022-11-05T01:03:32.628Z,5.38
2022-11-05T01:06:08.894Z,6.03
2022-11-05T01:08:42.995Z,5.38
2022-11-05T01:11:35.164Z,5.15
2022-11-05T01:14:09.959Z,5.32
2022-11-05T01:16:42.578Z,4.90
2022-11-05T01:19:14.255Z,5.05
2022-11-05T01:21:45.820Z,5.72
2022-11-05T01:24:17.442Z,5.50
2022-11-05T01:26:49.005Z,5.65
2022-11-05T01:29:22.161Z,5.78
2022-11-05T01:31:53.711Z,5.30
2022-11-05T01:34:25.297Z,5.35
2022-11-05T01:36:56.843Z,5.57
2022-11-05T01:39:28.452Z,5.70
2022-11-05T01:42:00.324Z,5.45
2022-11-05T01:44:55.166Z,5.07
2022-11-05T01:47:37.970Z,5.30
2022-11-05T01:50:38.677Z,5.05
2022-11-05T01:53:21.676Z,5.00
2022-11-05T01:56:08.670Z,5.15
2022-11-05T01:58:46.404Z,5.05
2022-11-05T02:01:18.712Z,4.40
2022-11-05T02:03:57.879Z,4.20
2022-11-05T02:06:32.147Z,4.97
2022-11-05T02:09:08.998Z,4.18
2022-11-05T02:11:40.637Z,4.60
2022-11-05T02:14:12.254Z,5.03
2022-11-05T02:17:05.954Z,4.50
2022-11-05T02:20:02.415Z,4.47
2022-11-05T02:22:46.154Z,5.18
2022-11-05T02:25:55.312Z,4.43
2022-11-05T02:29:15.885Z,4.78
2022-11-05T02:32:02.376Z,4.60
2022-11-05T02:34:45.956Z,4.45
2022-11-05T02:37:44.574Z,4.95
2022-11-05T02:40:31.264Z,5.10
2022-11-05T02:43:27.821Z,5.20
2022-11-05T02:46:18.226Z,5.20
2022-11-05T02:48:57.881Z,4.93
2022-11-05T02:51:46.401Z,4.43
2022-11-05T02:54:30.881Z,4.55
2022-11-05T02:57:04.879Z,5.18
2022-11-05T02:59:36.415Z,5.03
2022-11-05T03:02:08.283Z,4.68
2022-11-05T03:04:40.038Z,4.50
2022-11-05T03:07:22.823Z,5.03
2022-11-05T03:10:34.826Z,4.50
2022-11-05T03:13:33.784Z,4.00
2022-11-05T03:16:41.983Z,4.50
2022-11-05T03:19:21.895Z,4.07
2022-11-05T03:21:57.717Z,4.07
2022-11-05T03:24:35.759Z,4.90
2022-11-05T03:27:11.730Z,4.85
2022-11-05T03:29:51.250Z,4.43
2022-11-05T03:32:24.319Z,4.60
2022-11-05T03:35:02.180Z,4.93
2022-11-05T03:37:38.857Z,4.97
2022-11-05T03:40:12.530Z,4.90
2022-11-05T03:42:48.199Z,4.82
2022-11-05T03:45:28.239Z,5.70
2022-11-05T03:48:02.167Z,4.82
2022-11-05T03:50:42.197Z,5.78
2022-11-05T03:53:18.744Z,5.32
2022-11-05T03:56:18.629Z,5.40
2022-11-05T03:58:56.038Z,5.32
2022-11-05T04:01:30.589Z,5.55
2022-11-05T04:04:02.333Z,5.15
2022-11-05T04:06:52.508Z,5.30
2022-11-05T04:09:42.646Z,4.80
2022-11-05T04:12:32.481Z,6.32
2022-11-05T04:15:04.348Z,4.90
2022-11-05T04:17:37.931Z,6.50
2022-11-05T04:20:28.017Z,5.68
2022-11-05T04:23:23.522Z,5.43
2022-11-05T04:28:46.906Z,6.00
2022-11-05T04:31:18.499Z,5.28
2022-11-05T04:33:50.418Z,5.90
2022-11-05T04:36:22.092Z,5.43
2022-11-05T04:38:53.714Z,5.50
2022-11-05T04:41:25.384Z,5.15
2022-11-05T04:43:56.995Z,5.95
2022-11-05T04:46:28.735Z,5.70
2022-11-05T04:49:00.367Z,5.93
2022-11-05T04:51:31.948Z,5.68
2022-11-05T04:54:03.676Z,6.15
2022-11-05T04:56:35.588Z,6.43
2022-11-05T04:59:07.204Z,5.50
2022-11-05T05:01:41.976Z,6.10
2022-11-05T05:04:14.563Z,5.90
2022-11-05T05:06:46.182Z,5.70
2022-11-05T05:09:17.821Z,5.68
2022-11-05T05:11:49.392Z,5.75
2022-11-05T05:14:21.008Z,5.22
2022-11-05T05:16:52.583Z,5.20
2022-11-05T05:19:25.011Z,5.53
2022-11-05T05:21:56.571Z,5.95
2022-11-05T05:24:28.175Z,6.07
2022-11-05T05:26:59.785Z,5.30
2022-11-05T05:29:31.356Z,5.38
2022-11-05T05:32:03.065Z,5.40
2022-11-05T05:34:36.039Z,5.40
2022-11-05T05:37:07.735Z,5.15
2022-11-05T05:39:41.331Z,6.25
2022-11-05T05:42:13.728Z,5.95
2022-11-05T05:44:47.361Z,5.82
2022-11-05T05:47:18.982Z,5.00
2022-11-05T05:49:50.576Z,5.82
2022-11-05T05:52:26.219Z,6.28
2022-11-05T05:54:57.899Z,5.97
2022-11-05T05:57:29.482Z,5.78
2022-11-05T06:00:01.973Z,5.82
2022-11-05T06:02:43.414Z,5.47
2022-11-05T06:05:15.188Z,5.57
2022-11-05T06:07:46.727Z,5.90
2022-11-05T06:10:18.402Z,5.60
2022-11-05T06:12:50.219Z,5.57
2022-11-05T06:15:21.811Z,6.15
2022-11-05T06:17:53.437Z,5.70
2022-11-05T06:20:25.044Z,6.45
2022-11-05T06:22:59.676Z,5.55
2022-11-05T06:25:31.286Z,5.93
2022-11-05T06:28:02.963Z,6.03
2022-11-05T06:30:34.612Z,5.85
2022-11-05T06:33:06.223Z,6.03
2022-11-05T06:35:37.821Z,6.25
2022-11-05T06:38:09.402Z,5.53
2022-11-05T06:40:41.134Z,5.70
2022-11-05T06:43:13.209Z,6.07
2022-11-05T06:45:45.073Z,5.88
2022-11-05T06:48:16.643Z,5.90
2022-11-05T06:50:48.639Z,6.20
2022-11-05T06:53:20.391Z,5.80
2022-11-05T06:55:52.237Z,5.75
2022-11-05T06:58:23.864Z,6.20
2022-11-05T07:00:59.418Z,7.10
2022-11-05T07:03:32.827Z,6.28
2022-11-05T07:06:06.114Z,6.07
2022-11-05T07:08:38.435Z,6.53
2022-11-05T07:11:10.068Z,6.78
2022-11-05T07:13:41.714Z,6.65
2022-11-05T07:16:13.387Z,6.68
2022-11-05T07:18:44.995Z,5.95
2022-11-05T07:21:16.576Z,7.10
2022-11-05T07:23:48.586Z,6.45
2022-11-05T07:26:20.294Z,7.35
2022-11-05T07:28:51.853Z,7.45
2022-11-05T07:31:23.567Z,8.13
2022-11-05T07:33:55.146Z,7.07
2022-11-05T07:36:26.789Z,6.80
2022-11-05T07:39:00.553Z,7.60
2022-11-05T07:41:32.380Z,6.60
2022-11-05T07:44:04.020Z,6.90
2022-11-05T07:46:35.918Z,6.90
2022-11-05T07:49:07.485Z,6.60
2022-11-05T07:51:39.081Z,7.65
2022-11-05T07:54:10.746Z,6.50
2022-11-05T07:56:42.343Z,6.63
2022-11-05T07:59:13.917Z,7.13
2022-11-05T08:01:45.593Z,6.72
2022-11-05T08:04:17.240Z,6.93
2022-11-05T08:06:48.862Z,6.32
2022-11-05T08:09:20.455Z,6.38
2022-11-05T08:11:53.091Z,6.32
2022-11-05T08:14:25.201Z,7.13
2022-11-05T08:16:58.628Z,8.23
2022-11-05T08:19:30.251Z,7.20
2022-11-05T08:22:01.882Z,6.78
2022-11-05T08:24:33.455Z,6.97
2022-11-05T08:27:05.144Z,6.75
2022-11-05T08:29:36.800Z,7.00
2022-11-05T08:32:08.577Z,6.57
2022-11-05T08:34:40.132Z,7.32
2022-11-05T08:37:12.053Z,7.13
2022-11-05T08:39:43.636Z,6.72
2022-11-05T08:42:15.281Z,7.50
2022-11-05T08:44:46.841Z,7.07
2022-11-05T08:47:18.493Z,7.22
2022-11-05T08:49:50.138Z,7.03
2022-11-05T08:52:21.771Z,7.03
2022-11-05T08:54:53.316Z,7.07
2022-11-05T08:57:24.960Z,7.15
2022-11-05T08:59:56.606Z,6.45
2022-11-05T09:02:28.353Z,6.50
2022-11-05T09:05:00.032Z,6.30
2022-11-05T09:07:33.972Z,7.50
2022-11-05T09:10:06.113Z,6.57
2022-11-05T09:12:39.809Z,7.38
2022-11-05T09:15:11.716Z,6.60
2022-11-05T09:17:43.382Z,6.38
2022-11-05T09:20:15.143Z,6.43
2022-11-05T09:22:46.828Z,6.55
2022-11-05T09:25:18.479Z,6.50
2022-11-05T09:27:50.090Z,6.75
2022-11-05T09:30:21.656Z,6.85
2022-11-05T09:32:54.816Z,5.97
2022-11-05T09:35:26.379Z,5.60
2022-11-05T09:38:00.972Z,5.60
2022-11-05T09:40:55.737Z,5.85
2022-11-05T09:43:34.556Z,5.20
2022-11-05T09:46:27.188Z,4.93
2022-11-05T09:49:04.239Z,4.55
2022-11-05T09:51:37.148Z,4.10
2022-11-05T09:54:11.902Z,4.32
2022-11-05T09:56:44.276Z,3.67
2022-11-05T09:59:48.673Z,3.20
2022-11-05T10:02:30.642Z,3.50
2022-11-05T10:05:10.151Z,3.90
2022-11-05T10:08:01.783Z,3.22
2022-11-05T10:10:47.278Z,3.80
2022-11-05T10:13:25.101Z,3.28
2022-11-05T10:16:14.690Z,3.40
2022-11-05T10:18:51.214Z,4.38
2022-11-05T10:21:44.271Z,2.78
2022-11-05T10:24:27.997Z,2.50
2022-11-05T10:27:00.113Z,2.50
2022-11-05T10:29:34.365Z,2.10
2022-11-05T10:32:09.538Z,2.47
2022-11-05T10:34:42.490Z,2.22
2022-11-05T10:37:14.213Z,2.13
2022-11-05T10:39:45.830Z,1.75
2022-11-05T10:42:20.284Z,2.28
2022-11-05T10:48:13.641Z,1.90
2022-11-05T10:50:45.923Z,1.98
2022-11-05T10:53:22.075Z,2.33
2022-11-05T10:55:54.906Z,1.83
2022-11-05T10:58:35.466Z,1.98
2022-11-05T11:01:12.109Z,1.77
2022-11-05T11:03:51.401Z,1.92
2022-11-05T11:06:32.166Z,2.20
2022-11-05T11:09:10.470Z,1.70
2022-11-05T11:11:42.870Z,3.45
2022-11-05T11:14:16.529Z,2.08
2022-11-05T11:16:51.269Z,2.10
2022-11-05T11:19:31.851Z,2.22
2022-11-05T11:22:03.387Z,2.17
2022-11-05T11:24:46.977Z,2.30
2022-11-05T11:27:23.893Z,2.13
2022-11-05T11:30:04.423Z,2.10
2022-11-05T11:32:39.128Z,2.10
2022-11-05T11:38:00.844Z,2.70
2022-11-05T11:40:36.159Z,2.40
2022-11-05T11:43:28.179Z,2.67
2022-11-05T11:46:05.398Z,2.60
2022-11-05T11:48:40.871Z,3.22
2022-11-05T11:51:34.267Z,3.13
2022-11-05T11:54:17.879Z,2.63
2022-11-05T11:56:49.611Z,2.72
2022-11-05T11:59:53.907Z,2.65
2022-11-05T12:02:43.336Z,3.17
2022-11-05T12:05:39.873Z,2.67
2022-11-05T12:08:45.577Z,2.80
2022-11-05T12:11:29.494Z,2.72
2022-11-05T12:14:46.404Z,3.22
2022-11-05T12:17:39.871Z,2.67
2022-11-05T12:20:14.430Z,2.85
2022-11-05T12:25:36.292Z,2.58
2022-11-05T12:28:10.798Z,2.58
2022-11-05T12:31:19.766Z,2.20
2022-11-05T12:33:56.203Z,2.55
2022-11-05T12:36:59.679Z,2.53
2022-11-05T12:39:48.411Z,2.47
2022-11-05T12:42:28.981Z,2.45
2022-11-05T12:45:12.404Z,2.20
2022-11-05T12:47:57.367Z,2.70
2022-11-05T12:50:36.043Z,2.40
2022-11-05T12:53:35.209Z,2.05
2022-11-05T12:56:18.681Z,2.30
2022-11-05T12:59:21.202Z,2.40
2022-11-05T13:02:03.073Z,2.28
2022-11-05T13:04:40.618Z,2.40
2022-11-05T13:07:16.849Z,2.35
2022-11-05T13:10:01.199Z,2.55
2022-11-05T13:12:37.080Z,2.30
2022-11-05T13:15:33.707Z,2.63
2022-11-05T13:18:13.393Z,2.35
2022-11-05T13:20:50.378Z,2.47
2022-11-05T13:23:34.184Z,2.67
2022-11-05T13:26:16.974Z,2.90
2022-11-05T13:28:58.249Z,2.80
2022-11-05T13:31:43.517Z,2.40
2022-11-05T13:34:15.098Z,3.05
2022-11-05T13:37:19.463Z,3.65
2022-11-05T13:39:56.114Z,2.80
2022-11-05T13:42:36.783Z,2.70
2022-11-05T13:45:30.895Z,3.35
2022-11-05T13:48:20.894Z,3.08
2022-11-05T13:51:10.685Z,2.83
2022-11-05T13:54:19.757Z,2.97
2022-11-05T13:57:29.795Z,2.90
2022-11-05T14:00:21.176Z,2.83
2022-11-05T14:03:16.006Z,3.30
2022-11-05T14:06:05.538Z,2.90
2022-11-05T14:08:41.659Z,3.22
2022-11-05T14:11:22.265Z,3.13
2022-11-05T14:14:01.420Z,3.00
2022-11-05T14:17:08.294Z,3.83
2022-11-05T14:20:04.375Z,3.50
2022-11-05T14:22:40.161Z,3.30
2022-11-05T14:25:17.690Z,3.10
2022-11-05T14:27:56.260Z,3.47
2022-11-05T14:30:47.244Z,3.30
2022-11-05T14:33:24.887Z,3.30
2022-11-05T14:36:21.249Z,3.55
2022-11-05T14:38:58.865Z,3.90
2022-11-05T14:41:56.955Z,3.50
2022-11-05T14:44:34.476Z,3.55
2022-11-05T14:47:21.504Z,3.72
2022-11-05T14:49:58.847Z,3.85
2022-11-05T14:52:37.359Z,3.20
2022-11-05T14:55:38.572Z,3.85
2022-11-05T14:58:19.220Z,3.72
2022-11-05T15:00:51.086Z,3.03
2022-11-05T15:03:36.902Z,3.70
2022-11-05T15:06:48.903Z,3.42
2022-11-05T15:09:29.511Z,3.65
2022-11-05T15:12:09.129Z,3.40
2022-11-05T15:14:55.592Z,3.15
2022-11-05T15:17:40.799Z,4.47
2022-11-05T15:20:22.105Z,3.75
2022-11-05T15:22:59.615Z,3.90
2022-11-05T15:25:52.770Z,3.42
2022-11-05T15:28:51.836Z,3.60
2022-11-05T15:31:41.118Z,4.00
2022-11-05T15:34:16.284Z,4.40
2022-11-05T15:36:51.303Z,4.45
2022-11-05T15:39:42.033Z,4.72
2022-11-05T15:42:19.600Z,5.43
2022-11-05T15:44:55.881Z,4.72
2022-11-05T15:47:34.632Z,4.10
2022-11-05T15:50:15.376Z,4.63
2022-11-05T15:52:53.817Z,4.93
2022-11-05T15:55:28.222Z,7.10
2022-11-05T15:58:04.513Z,8.25
2022-11-05T16:00:37.162Z,7.25
2022-11-05T16:03:29.283Z,6.18
2022-11-05T16:06:02.178Z,8.00
2022-11-05T16:08:34.631Z,7.00
2022-11-05T16:11:06.248Z,7.03
2022-11-05T16:13:41.602Z,8.25
2022-11-05T16:16:15.878Z,7.43
2022-11-05T16:18:50.672Z,7.15
2022-11-05T16:21:25.360Z,6.30
2022-11-05T16:23:59.699Z,6.43
2022-11-05T16:29:37.846Z,7.22
2022-11-05T16:32:18.629Z,6.70
2022-11-05T16:34:59.439Z,7.75
2022-11-05T16:37:40.972Z,7.38
2022-11-05T16:40:24.106Z,7.60
2022-11-05T16:43:08.587Z,9.50
2022-11-05T16:45:41.466Z,9.85
2022-11-05T16:48:15.807Z,9.38
2022-11-05T16:50:47.576Z,9.65
2022-11-05T16:53:19.208Z,9.63
2022-11-05T16:55:53.699Z,9.45
2022-11-05T16:58:26.752Z,9.57
2022-11-05T17:01:10.539Z,8.43
2022-11-05T17:03:42.438Z,9.32
2022-11-05T17:06:15.877Z,8.77
2022-11-05T17:08:48.339Z,9.88
2022-11-05T17:11:21.228Z,10.35
2022-11-05T17:13:52.879Z,10.70
2022-11-05T17:16:28.133Z,11.35
2022-11-05T17:18:59.727Z,11.55
2022-11-05T17:21:31.296Z,11.02
2022-11-05T17:24:03.238Z,11.50
2022-11-05T17:26:34.887Z,11.48
2022-11-05T17:29:06.478Z,10.90
2022-11-05T17:31:40.085Z,10.82
2022-11-05T17:34:11.682Z,11.07
2022-11-05T17:36:43.260Z,10.65
2022-11-05T17:39:14.941Z,11.02
2022-11-05T17:41:47.843Z,10.77
2022-11-05T17:44:19.443Z,11.55
2022-11-05T17:46:51.212Z,11.40
2022-11-05T17:49:22.848Z,11.32
2022-11-05T17:51:54.431Z,11.30
2022-11-05T17:54:26.067Z,12.57
2022-11-05T17:56:57.642Z,12.60
2022-11-05T17:59:29.883Z,12.50
2022-11-05T18:02:01.911Z,13.38
2022-11-05T18:04:33.830Z,13.50
2022-11-05T18:07:06.119Z,11.60
2022-11-05T18:09:37.832Z,11.82
2022-11-05T18:12:09.434Z,11.48
2022-11-05T18:14:41.079Z,11.43
2022-11-05T18:17:14.300Z,12.20
2022-11-05T18:19:45.909Z,12.02
2022-11-05T18:22:19.427Z,12.80
2022-11-05T18:24:51.110Z,12.52
2022-11-05T18:27:27.630Z,12.55
2022-11-05T18:29:59.433Z,12.95
2022-11-05T18:32:30.992Z,12.93
2022-11-05T18:35:02.818Z,14.05
2022-11-05T18:37:34.470Z,14.00
2022-11-05T18:40:07.570Z,13.98
2022-11-05T18:42:39.586Z,13.70
2022-11-05T18:45:12.793Z,14.00
2022-11-05T18:47:44.461Z,13.30
2022-11-05T18:50:16.288Z,12.68
2022-11-05T18:52:50.378Z,13.00
2022-11-05T18:55:22.598Z,13.57
2022-11-05T18:57:54.234Z,13.20
2022-11-05T19:00:25.840Z,14.07
2022-11-05T19:02:58.011Z,13.40
2022-11-05T19:05:30.588Z,14.43
2022-11-05T19:08:02.289Z,12.88
2022-11-05T19:10:33.978Z,14.63
2022-11-05T19:13:06.017Z,14.90
2022-11-05T19:15:42.459Z,14.70
2022-11-05T19:18:14.649Z,17.00
2022-11-05T19:20:46.479Z,15.35
2022-11-05T19:23:21.004Z,14.27
2022-11-05T19:25:52.617Z,15.18
2022-11-05T19:28:24.236Z,14.77
2022-11-05T19:30:55.874Z,14.63
2022-11-05T19:33:27.919Z,14.32
2022-11-05T19:36:05.695Z,14.48
2022-11-05T19:38:37.833Z,14.45
2022-11-05T19:41:14.166Z,15.00
2022-11-05T19:43:45.992Z,15.05
2022-11-05T19:46:19.446Z,14.40
2022-11-05T19:48:51.820Z,14.45
2022-11-05T19:51:26.028Z,15.38
2022-11-05T19:54:00.503Z,15.13
2022-11-05T19:56:34.356Z,15.05
2022-11-05T19:59:07.044Z,14.17
2022-11-05T20:01:39.046Z,15.75
2022-11-05T20:04:11.967Z,15.00
2022-11-05T20:06:43.690Z,15.10
2022-11-05T20:09:21.684Z,16.33
2022-11-05T20:11:56.389Z,14.70
2022-11-05T20:14:28.293Z,15.35
2022-11-05T20:17:00.173Z,16.15
2022-11-05T20:19:32.125Z,14.63
2022-11-05T20:22:03.975Z,14.73
2022-11-05T20:24:35.630Z,17.85
2022-11-05T20:27:07.539Z,16.35
2022-11-05T20:29:39.187Z,14.80
2022-11-05T20:32:12.621Z,15.63
2022-11-05T20:34:44.611Z,15.82
2022-11-05T20:37:19.232Z,15.73
2022-11-05T20:39:50.803Z,15.75
2022-11-05T20:42:22.476Z,16.85
2022-11-05T20:44:54.103Z,15.68
2022-11-05T20:47:25.843Z,15.90
2022-11-05T20:50:01.293Z,14.95
2022-11-05T20:52:33.798Z,16.02
2022-11-05T20:55:09.008Z,17.38
2022-11-05T20:57:40.805Z,16.85
2022-11-05T21:00:13.351Z,16.73
2022-11-05T21:02:45.135Z,17.70
2022-11-05T21:05:16.783Z,17.48
2022-11-05T21:07:48.369Z,17.30
2022-11-05T21:10:20.029Z,17.85
2022-11-05T21:12:51.696Z,17.63
2022-11-05T21:15:24.293Z,17.48
2022-11-05T21:17:55.839Z,16.58
2022-11-05T21:20:27.492Z,16.42
2022-11-05T21:22:59.053Z,15.95
2022-11-05T21:25:30.574Z,16.95
2022-11-05T21:28:02.209Z,17.30
2022-11-05T21:30:36.631Z,17.25
2022-11-05T21:33:08.928Z,18.25
2022-11-05T21:35:44.042Z,18.48
2022-11-05T21:38:17.387Z,17.48
2022-11-05T21:40:49.116Z,17.17
2022-11-05T21:43:20.797Z,18.70
2022-11-05T21:45:52.433Z,17.95
2022-11-05T21:48:24.059Z,18.65
2022-11-05T21:51:14.559Z,18.23
2022-11-05T21:54:05.109Z,17.33
2022-11-05T21:56:55.068Z,18.73
2022-11-05T21:59:45.260Z,19.27
2022-11-05T22:02:20.023Z,19.63
2022-11-05T22:04:54.052Z,21.80
2022-11-05T22:07:28.901Z,21.50
2022-11-05T22:10:00.795Z,22.27
2022-11-05T22:12:32.539Z,22.00
2022-11-05T22:15:05.361Z,21.70
2022-11-05T22:17:37.023Z,22.38
2022-11-05T22:20:09.087Z,22.00
2022-11-05T22:22:43.992Z,22.05
2022-11-05T22:25:16.270Z,21.55
2022-11-05T22:27:47.860Z,20.33
2022-11-05T22:30:19.575Z,20.88
2022-11-05T22:32:51.080Z,21.10
2022-11-05T22:35:23.901Z,22.02
2022-11-05T22:37:55.486Z,20.98
2022-11-05T22:40:27.037Z,20.20
2022-11-05T22:42:58.590Z,21.10
2022-11-05T22:45:30.312Z,19.63
2022-11-05T22:48:06.480Z,19.05
2022-11-05T22:50:38.655Z,20.77
2022-11-05T22:53:10.223Z,20.65
2022-11-05T22:55:41.808Z,20.27
2022-11-05T22:58:13.712Z,19.48
2022-11-05T23:00:45.495Z,19.75
2022-11-05T23:03:20.213Z,21.10
2022-11-05T23:08:49.728Z,18.52
2022-11-05T23:11:36.001Z,19.15
2022-11-05T23:14:09.579Z,18.77
2022-11-05T23:17:00.650Z,19.77
2022-11-05T23:19:51.128Z,19.92
2022-11-05T23:22:44.832Z,21.40
2022-11-05T23:25:19.749Z,19.70
2022-11-05T23:27:53.556Z,18.77
2022-11-05T23:30:27.190Z,19.73
2022-11-05T23:32:59.520Z,20.07
2022-11-05T23:35:49.559Z,17.92
2022-11-05T23:38:36.054Z,19.33
2022-11-05T23:41:26.243Z,19.33
2022-11-05T23:44:16.492Z,20.48
2022-11-05T23:47:06.606Z,19.77
2022-11-05T23:49:38.110Z,19.40
2022-11-05T23:52:09.629Z,18.90
2022-11-05T23:54:41.217Z,20.50
2022-11-05T23:57:12.790Z,21.02
2022-11-05T23:59:44.375Z,18.58
